sensor_id;sensor_type;location;lat;lon;timestamp;P1;durP1;ratioP1;P2;durP2;ratioP2
2320;SDS011;15376;48.540;9.268;2023-08-06T00:01:11;7.63;;;7.00;;
2320;SDS011;15376;48.540;9.268;2023-08-06T00:03:36;7.30;;;6.60;;
2320;SDS011;15376;48.540;9.268;2023-08-06T00:06:02;8.30;;;6.43;;
2320;SDS011;15376;48.540;9.268;2023-08-06T00:08:27;7.03;;;6.33;;
2320;SDS011;15376;48.540;9.268;2023-08-06T00:10:53;7.47;;;6.87;;
2320;SDS011;15376;48.540;9.268;2023-08-06T00:13:18;7.13;;;6.53;;
2320;SDS011;15376;48.540;9.268;2023-08-06T00:15:43;8.07;;;6.57;;
2320;SDS011;15376;48.540;9.268;2023-08-06T00:18:09;7.10;;;6.50;;
2320;SDS011;15376;48.540;9.268;2023-08-06T00:20:34;7.33;;;6.73;;
2320;SDS011;15376;48.540;9.268;2023-08-06T00:22:59;6.63;;;6.13;;
2320;SDS011;15376;48.540;9.268;2023-08-06T00:25:25;6.80;;;6.20;;
2320;SDS011;15376;48.540;9.268;2023-08-06T00:27:50;6.30;;;5.70;;
2320;SDS011;15376;48.540;9.268;2023-08-06T00:30:15;7.03;;;6.43;;
2320;SDS011;15376;48.540;9.268;2023-08-06T00:32:41;6.90;;;6.30;;
2320;SDS011;15376;48.540;9.268;2023-08-06T00:35:06;6.90;;;6.30;;
2320;SDS011;15376;48.540;9.268;2023-08-06T00:37:32;8.50;;;6.83;;
2320;SDS011;15376;48.540;9.268;2023-08-06T00:39:57;7.47;;;6.60;;
2320;SDS011;15376;48.540;9.268;2023-08-06T00:42:22;6.93;;;6.33;;
2320;SDS011;15376;48.540;9.268;2023-08-06T00:44:48;6.43;;;5.83;;
2320;SDS011;15376;48.540;9.268;2023-08-06T00:47:13;6.30;;;5.80;;
2320;SDS011;15376;48.540;9.268;2023-08-06T00:49:39;6.50;;;5.90;;
2320;SDS011;15376;48.540;9.268;2023-08-06T00:52:05;6.07;;;5.47;;
2320;SDS011;15376;48.540;9.268;2023-08-06T00:54:33;8.73;;;6.70;;
2320;SDS011;15376;48.540;9.268;2023-08-06T00:57:00;7.57;;;6.00;;
2320;SDS011;15376;48.540;9.268;2023-08-06T00:59:26;7.03;;;5.83;;
2320;SDS011;15376;48.540;9.268;2023-08-06T01:01:53;9.37;;;6.40;;
2320;SDS011;15376;48.540;9.268;2023-08-06T01:04:18;6.47;;;5.93;;
2320;SDS011;15376;48.540;9.268;2023-08-06T01:06:45;5.97;;;5.37;;
2320;SDS011;15376;48.540;9.268;2023-08-06T01:09:22;5.80;;;5.30;;
2320;SDS011;15376;48.540;9.268;2023-08-06T01:12:09;6.07;;;5.57;;
2320;SDS011;15376;48.540;9.268;2023-08-06T01:17:42;6.27;;;5.83;;
2320;SDS011;15376;48.540;9.268;2023-08-06T01:20:10;7.47;;;5.17;;
2320;SDS011;15376;48.540;9.268;2023-08-06T01:22:35;7.03;;;6.17;;
2320;SDS011;15376;48.540;9.268;2023-08-06T01:25:00;8.90;;;6.27;;
2320;SDS011;15376;48.540;9.268;2023-08-06T01:27:45;6.97;;;5.80;;
2320;SDS011;15376;48.540;9.268;2023-08-06T01:30:17;5.67;;;5.17;;
2320;SDS011;15376;48.540;9.268;2023-08-06T01:32:48;5.37;;;4.87;;
2320;SDS011;15376;48.540;9.268;2023-08-06T01:35:18;5.63;;;5.20;;
2320;SDS011;15376;48.540;9.268;2023-08-06T01:37:44;5.30;;;4.90;;
2320;SDS011;15376;48.540;9.268;2023-08-06T01:40:11;6.27;;;5.50;;
2320;SDS011;15376;48.540;9.268;2023-08-06T01:42:38;5.07;;;4.67;;
2320;SDS011;15376;48.540;9.268;2023-08-06T01:45:04;6.57;;;4.67;;
2320;SDS011;15376;48.540;9.268;2023-08-06T01:47:30;4.40;;;4.00;;
2320;SDS011;15376;48.540;9.268;2023-08-06T01:49:56;4.90;;;4.50;;
2320;SDS011;15376;48.540;9.268;2023-08-06T01:52:21;4.43;;;4.07;;
2320;SDS011;15376;48.540;9.268;2023-08-06T01:54:46;5.40;;;4.70;;
2320;SDS011;15376;48.540;9.268;2023-08-06T01:57:12;4.73;;;4.33;;
2320;SDS011;15376;48.540;9.268;2023-08-06T01:59:37;5.13;;;4.00;;
2320;SDS011;15376;48.540;9.268;2023-08-06T02:02:02;4.63;;;4.23;;
2320;SDS011;15376;48.540;9.268;2023-08-06T02:04:28;3.90;;;3.50;;
2320;SDS011;15376;48.540;9.268;2023-08-06T02:06:53;7.80;;;3.80;;
2320;SDS011;15376;48.540;9.268;2023-08-06T02:09:18;4.63;;;4.23;;
2320;SDS011;15376;48.540;9.268;2023-08-06T02:11:44;5.17;;;4.70;;
2320;SDS011;15376;48.540;9.268;2023-08-06T02:14:09;8.90;;;4.17;;
2320;SDS011;15376;48.540;9.268;2023-08-06T02:16:35;4.40;;;4.10;;
2320;SDS011;15376;48.540;9.268;2023-08-06T02:19:03;4.50;;;4.07;;
2320;SDS011;15376;48.540;9.268;2023-08-06T02:21:28;5.37;;;4.00;;
2320;SDS011;15376;48.540;9.268;2023-08-06T02:23:54;4.80;;;4.40;;
2320;SDS011;15376;48.540;9.268;2023-08-06T02:26:20;6.50;;;4.80;;
2320;SDS011;15376;48.540;9.268;2023-08-06T02:28:45;4.83;;;4.30;;
2320;SDS011;15376;48.540;9.268;2023-08-06T02:31:10;8.50;;;4.60;;
2320;SDS011;15376;48.540;9.268;2023-08-06T02:33:36;4.20;;;3.80;;
2320;SDS011;15376;48.540;9.268;2023-08-06T02:36:02;4.90;;;4.40;;
2320;SDS011;15376;48.540;9.268;2023-08-06T02:38:31;5.00;;;3.80;;
2320;SDS011;15376;48.540;9.268;2023-08-06T02:40:57;6.47;;;3.73;;
2320;SDS011;15376;48.540;9.268;2023-08-06T02:43:22;3.90;;;3.60;;
2320;SDS011;15376;48.540;9.268;2023-08-06T02:45:48;4.37;;;4.07;;
2320;SDS011;15376;48.540;9.268;2023-08-06T02:48:13;8.40;;;3.97;;
2320;SDS011;15376;48.540;9.268;2023-08-06T02:50:42;4.37;;;3.60;;
2320;SDS011;15376;48.540;9.268;2023-08-06T02:53:08;5.10;;;3.57;;
2320;SDS011;15376;48.540;9.268;2023-08-06T02:55:34;6.40;;;3.80;;
2320;SDS011;15376;48.540;9.268;2023-08-06T02:58:00;4.63;;;3.50;;
2320;SDS011;15376;48.540;9.268;2023-08-06T03:00:26;3.37;;;3.07;;
2320;SDS011;15376;48.540;9.268;2023-08-06T03:02:52;3.60;;;3.30;;
2320;SDS011;15376;48.540;9.268;2023-08-06T03:05:18;5.83;;;3.60;;
2320;SDS011;15376;48.540;9.268;2023-08-06T03:07:44;3.90;;;3.50;;
2320;SDS011;15376;48.540;9.268;2023-08-06T03:10:09;3.97;;;3.60;;
2320;SDS011;15376;48.540;9.268;2023-08-06T03:12:34;4.77;;;3.70;;
2320;SDS011;15376;48.540;9.268;2023-08-06T03:15:00;5.10;;;3.33;;
2320;SDS011;15376;48.540;9.268;2023-08-06T03:17:25;4.13;;;3.73;;
2320;SDS011;15376;48.540;9.268;2023-08-06T03:19:50;4.83;;;3.73;;
2320;SDS011;15376;48.540;9.268;2023-08-06T03:22:16;4.90;;;3.70;;
2320;SDS011;15376;48.540;9.268;2023-08-06T03:24:41;7.10;;;3.53;;
2320;SDS011;15376;48.540;9.268;2023-08-06T03:27:06;4.73;;;3.37;;
2320;SDS011;15376;48.540;9.268;2023-08-06T03:29:32;3.90;;;3.20;;
2320;SDS011;15376;48.540;9.268;2023-08-06T03:31:57;3.30;;;3.00;;
2320;SDS011;15376;48.540;9.268;2023-08-06T03:34:22;3.23;;;2.90;;
2320;SDS011;15376;48.540;9.268;2023-08-06T03:36:48;3.47;;;3.13;;
2320;SDS011;15376;48.540;9.268;2023-08-06T03:39:13;4.20;;;3.30;;
2320;SDS011;15376;48.540;9.268;2023-08-06T03:41:39;2.93;;;2.73;;
2320;SDS011;15376;48.540;9.268;2023-08-06T03:44:04;3.87;;;2.60;;
2320;SDS011;15376;48.540;9.268;2023-08-06T03:46:30;3.83;;;2.90;;
2320;SDS011;15376;48.540;9.268;2023-08-06T03:48:58;3.50;;;3.03;;
2320;SDS011;15376;48.540;9.268;2023-08-06T03:51:24;3.53;;;2.50;;
2320;SDS011;15376;48.540;9.268;2023-08-06T03:53:49;4.57;;;2.80;;
2320;SDS011;15376;48.540;9.268;2023-08-06T03:56:15;2.83;;;2.63;;
2320;SDS011;15376;48.540;9.268;2023-08-06T03:58:40;4.83;;;2.70;;
2320;SDS011;15376;48.540;9.268;2023-08-06T04:01:05;3.73;;;3.23;;
2320;SDS011;15376;48.540;9.268;2023-08-06T04:03:31;4.90;;;3.13;;
2320;SDS011;15376;48.540;9.268;2023-08-06T04:05:56;2.97;;;2.50;;
2320;SDS011;15376;48.540;9.268;2023-08-06T04:08:21;2.20;;;2.00;;
2320;SDS011;15376;48.540;9.268;2023-08-06T04:10:53;2.70;;;2.37;;
2320;SDS011;15376;48.540;9.268;2023-08-06T04:13:19;2.00;;;1.77;;
2320;SDS011;15376;48.540;9.268;2023-08-06T04:15:45;2.50;;;2.27;;
2320;SDS011;15376;48.540;9.268;2023-08-06T04:18:11;3.40;;;2.10;;
2320;SDS011;15376;48.540;9.268;2023-08-06T04:20:43;3.30;;;2.30;;
2320;SDS011;15376;48.540;9.268;2023-08-06T04:23:09;5.87;;;2.60;;
2320;SDS011;15376;48.540;9.268;2023-08-06T04:25:34;3.00;;;2.00;;
2320;SDS011;15376;48.540;9.268;2023-08-06T04:28:00;3.00;;;1.87;;
2320;SDS011;15376;48.540;9.268;2023-08-06T04:30:25;2.87;;;2.07;;
2320;SDS011;15376;48.540;9.268;2023-08-06T04:32:50;2.67;;;2.00;;
2320;SDS011;15376;48.540;9.268;2023-08-06T04:35:16;3.50;;;2.20;;
2320;SDS011;15376;48.540;9.268;2023-08-06T04:37:41;3.73;;;2.03;;
2320;SDS011;15376;48.540;9.268;2023-08-06T04:40:07;3.30;;;2.60;;
2320;SDS011;15376;48.540;9.268;2023-08-06T04:42:33;4.43;;;4.10;;
2320;SDS011;15376;48.540;9.268;2023-08-06T04:44:58;3.60;;;2.80;;
2320;SDS011;15376;48.540;9.268;2023-08-06T04:47:24;4.10;;;2.80;;
2320;SDS011;15376;48.540;9.268;2023-08-06T04:49:50;3.57;;;2.33;;
2320;SDS011;15376;48.540;9.268;2023-08-06T04:52:16;3.60;;;2.80;;
2320;SDS011;15376;48.540;9.268;2023-08-06T04:54:41;2.70;;;2.50;;
2320;SDS011;15376;48.540;9.268;2023-08-06T04:57:08;3.57;;;2.60;;
2320;SDS011;15376;48.540;9.268;2023-08-06T04:59:33;3.53;;;2.60;;
2320;SDS011;15376;48.540;9.268;2023-08-06T05:01:59;2.60;;;2.37;;
2320;SDS011;15376;48.540;9.268;2023-08-06T05:04:24;3.73;;;2.40;;
2320;SDS011;15376;48.540;9.268;2023-08-06T05:06:49;3.00;;;2.10;;
2320;SDS011;15376;48.540;9.268;2023-08-06T05:09:15;3.90;;;2.30;;
2320;SDS011;15376;48.540;9.268;2023-08-06T05:11:40;2.40;;;2.20;;
2320;SDS011;15376;48.540;9.268;2023-08-06T05:14:05;2.60;;;1.87;;
2320;SDS011;15376;48.540;9.268;2023-08-06T05:16:31;2.83;;;2.03;;
2320;SDS011;15376;48.540;9.268;2023-08-06T05:18:56;5.57;;;2.23;;
2320;SDS011;15376;48.540;9.268;2023-08-06T05:21:21;2.83;;;1.90;;
2320;SDS011;15376;48.540;9.268;2023-08-06T05:23:47;3.80;;;2.57;;
2320;SDS011;15376;48.540;9.268;2023-08-06T05:26:12;2.93;;;2.10;;
2320;SDS011;15376;48.540;9.268;2023-08-06T05:28:39;2.20;;;2.00;;
2320;SDS011;15376;48.540;9.268;2023-08-06T05:31:06;1.73;;;1.63;;
2320;SDS011;15376;48.540;9.268;2023-08-06T05:33:31;1.93;;;1.70;;
2320;SDS011;15376;48.540;9.268;2023-08-06T05:35:57;1.90;;;1.70;;
2320;SDS011;15376;48.540;9.268;2023-08-06T05:38:22;3.13;;;2.13;;
2320;SDS011;15376;48.540;9.268;2023-08-06T05:40:48;4.20;;;1.60;;
2320;SDS011;15376;48.540;9.268;2023-08-06T05:43:14;2.07;;;1.90;;
2320;SDS011;15376;48.540;9.268;2023-08-06T05:45:39;2.03;;;1.73;;
2320;SDS011;15376;48.540;9.268;2023-08-06T05:48:04;3.10;;;1.73;;
2320;SDS011;15376;48.540;9.268;2023-08-06T05:50:30;1.50;;;1.40;;
2320;SDS011;15376;48.540;9.268;2023-08-06T05:52:55;2.80;;;1.63;;
2320;SDS011;15376;48.540;9.268;2023-08-06T05:55:21;1.77;;;1.40;;
2320;SDS011;15376;48.540;9.268;2023-08-06T05:57:47;1.30;;;1.20;;
2320;SDS011;15376;48.540;9.268;2023-08-06T06:00:12;2.00;;;1.80;;
2320;SDS011;15376;48.540;9.268;2023-08-06T06:02:37;2.33;;;1.70;;
2320;SDS011;15376;48.540;9.268;2023-08-06T06:05:03;2.03;;;1.40;;
2320;SDS011;15376;48.540;9.268;2023-08-06T06:07:28;2.60;;;1.40;;
2320;SDS011;15376;48.540;9.268;2023-08-06T06:09:54;1.30;;;1.20;;
2320;SDS011;15376;48.540;9.268;2023-08-06T06:12:19;1.97;;;1.23;;
2320;SDS011;15376;48.540;9.268;2023-08-06T06:14:44;2.83;;;2.20;;
2320;SDS011;15376;48.540;9.268;2023-08-06T06:17:10;1.40;;;1.30;;
2320;SDS011;15376;48.540;9.268;2023-08-06T06:19:35;2.83;;;1.63;;
2320;SDS011;15376;48.540;9.268;2023-08-06T06:22:00;10.83;;;6.13;;
2320;SDS011;15376;48.540;9.268;2023-08-06T06:24:26;17.53;;;11.63;;
2320;SDS011;15376;48.540;9.268;2023-08-06T06:26:51;3.40;;;1.90;;
2320;SDS011;15376;48.540;9.268;2023-08-06T06:29:17;3.10;;;2.53;;
2320;SDS011;15376;48.540;9.268;2023-08-06T06:31:42;3.10;;;2.70;;
2320;SDS011;15376;48.540;9.268;2023-08-06T06:34:07;7.43;;;5.50;;
2320;SDS011;15376;48.540;9.268;2023-08-06T06:36:33;2.47;;;1.80;;
2320;SDS011;15376;48.540;9.268;2023-08-06T06:38:58;1.53;;;1.40;;
2320;SDS011;15376;48.540;9.268;2023-08-06T06:41:23;1.30;;;1.20;;
2320;SDS011;15376;48.540;9.268;2023-08-06T06:43:49;2.23;;;1.93;;
2320;SDS011;15376;48.540;9.268;2023-08-06T06:46:14;1.63;;;1.53;;
2320;SDS011;15376;48.540;9.268;2023-08-06T06:48:39;2.63;;;1.50;;
2320;SDS011;15376;48.540;9.268;2023-08-06T06:51:05;3.33;;;1.80;;
2320;SDS011;15376;48.540;9.268;2023-08-06T06:53:30;5.27;;;2.87;;
2320;SDS011;15376;48.540;9.268;2023-08-06T06:56:02;3.23;;;1.70;;
2320;SDS011;15376;48.540;9.268;2023-08-06T06:58:29;3.17;;;2.03;;
2320;SDS011;15376;48.540;9.268;2023-08-06T07:00:55;2.00;;;1.27;;
2320;SDS011;15376;48.540;9.268;2023-08-06T07:03:21;1.20;;;1.10;;
2320;SDS011;15376;48.540;9.268;2023-08-06T07:05:46;1.77;;;0.90;;
2320;SDS011;15376;48.540;9.268;2023-08-06T07:08:12;1.17;;;1.07;;
2320;SDS011;15376;48.540;9.268;2023-08-06T07:10:37;1.50;;;1.40;;
2320;SDS011;15376;48.540;9.268;2023-08-06T07:13:03;2.60;;;1.40;;
2320;SDS011;15376;48.540;9.268;2023-08-06T07:15:29;1.37;;;1.27;;
2320;SDS011;15376;48.540;9.268;2023-08-06T07:17:54;1.40;;;1.23;;
2320;SDS011;15376;48.540;9.268;2023-08-06T07:20:20;1.67;;;1.57;;
2320;SDS011;15376;48.540;9.268;2023-08-06T07:22:45;1.50;;;1.10;;
2320;SDS011;15376;48.540;9.268;2023-08-06T07:25:11;8.37;;;7.23;;
2320;SDS011;15376;48.540;9.268;2023-08-06T07:27:36;7.87;;;5.87;;
2320;SDS011;15376;48.540;9.268;2023-08-06T07:30:02;2.10;;;1.60;;
2320;SDS011;15376;48.540;9.268;2023-08-06T07:32:28;2.30;;;1.30;;
2320;SDS011;15376;48.540;9.268;2023-08-06T07:34:53;6.23;;;4.13;;
2320;SDS011;15376;48.540;9.268;2023-08-06T07:37:25;1.40;;;1.20;;
2320;SDS011;15376;48.540;9.268;2023-08-06T07:39:53;3.70;;;1.53;;
2320;SDS011;15376;48.540;9.268;2023-08-06T07:42:18;2.53;;;1.43;;
2320;SDS011;15376;48.540;9.268;2023-08-06T07:44:49;1.07;;;0.97;;
2320;SDS011;15376;48.540;9.268;2023-08-06T07:47:17;1.67;;;1.03;;
2320;SDS011;15376;48.540;9.268;2023-08-06T07:49:43;1.00;;;0.90;;
2320;SDS011;15376;48.540;9.268;2023-08-06T07:52:08;1.90;;;0.97;;
2320;SDS011;15376;48.540;9.268;2023-08-06T07:54:33;2.03;;;1.60;;
2320;SDS011;15376;48.540;9.268;2023-08-06T07:56:59;2.20;;;1.43;;
2320;SDS011;15376;48.540;9.268;2023-08-06T07:59:24;5.53;;;4.77;;
2320;SDS011;15376;48.540;9.268;2023-08-06T08:01:51;2.80;;;2.10;;
2320;SDS011;15376;48.540;9.268;2023-08-06T08:04:16;2.13;;;1.87;;
2320;SDS011;15376;48.540;9.268;2023-08-06T08:06:41;1.70;;;1.50;;
2320;SDS011;15376;48.540;9.268;2023-08-06T08:09:07;1.43;;;0.93;;
2320;SDS011;15376;48.540;9.268;2023-08-06T08:11:32;2.00;;;1.80;;
2320;SDS011;15376;48.540;9.268;2023-08-06T08:13:58;1.20;;;1.00;;
2320;SDS011;15376;48.540;9.268;2023-08-06T08:16:23;2.13;;;1.20;;
2320;SDS011;15376;48.540;9.268;2023-08-06T08:18:48;1.30;;;1.00;;
2320;SDS011;15376;48.540;9.268;2023-08-06T08:21:14;1.00;;;0.90;;
2320;SDS011;15376;48.540;9.268;2023-08-06T08:23:39;1.10;;;0.93;;
2320;SDS011;15376;48.540;9.268;2023-08-06T08:26:06;0.80;;;0.70;;
2320;SDS011;15376;48.540;9.268;2023-08-06T08:28:32;1.00;;;0.87;;
2320;SDS011;15376;48.540;9.268;2023-08-06T08:30:57;4.90;;;0.90;;
2320;SDS011;15376;48.540;9.268;2023-08-06T08:33:22;1.10;;;0.80;;
2320;SDS011;15376;48.540;9.268;2023-08-06T08:35:48;0.90;;;0.73;;
2320;SDS011;15376;48.540;9.268;2023-08-06T08:38:13;0.90;;;0.80;;
2320;SDS011;15376;48.540;9.268;2023-08-06T08:40:46;0.90;;;0.70;;
2320;SDS011;15376;48.540;9.268;2023-08-06T08:43:16;0.80;;;0.70;;
2320;SDS011;15376;48.540;9.268;2023-08-06T08:45:45;0.90;;;0.70;;
2320;SDS011;15376;48.540;9.268;2023-08-06T08:48:15;7.10;;;6.40;;
2320;SDS011;15376;48.540;9.268;2023-08-06T08:50:44;3.77;;;2.67;;
2320;SDS011;15376;48.540;9.268;2023-08-06T08:53:10;1.63;;;1.50;;
2320;SDS011;15376;48.540;9.268;2023-08-06T08:55:37;6.63;;;5.23;;
2320;SDS011;15376;48.540;9.268;2023-08-06T08:58:03;2.50;;;2.30;;
2320;SDS011;15376;48.540;9.268;2023-08-06T09:00:28;1.40;;;1.20;;
2320;SDS011;15376;48.540;9.268;2023-08-06T09:02:54;1.33;;;1.00;;
2320;SDS011;15376;48.540;9.268;2023-08-06T09:05:22;1.67;;;1.30;;
2320;SDS011;15376;48.540;9.268;2023-08-06T09:07:48;1.20;;;0.97;;
2320;SDS011;15376;48.540;9.268;2023-08-06T09:10:14;1.33;;;1.23;;
2320;SDS011;15376;48.540;9.268;2023-08-06T09:12:43;1.73;;;1.63;;
2320;SDS011;15376;48.540;9.268;2023-08-06T09:15:09;1.20;;;1.10;;
2320;SDS011;15376;48.540;9.268;2023-08-06T09:17:35;1.00;;;0.90;;
2320;SDS011;15376;48.540;9.268;2023-08-06T09:20:11;1.30;;;1.20;;
2320;SDS011;15376;48.540;9.268;2023-08-06T09:22:37;1.10;;;0.87;;
2320;SDS011;15376;48.540;9.268;2023-08-06T09:25:04;1.07;;;0.80;;
2320;SDS011;15376;48.540;9.268;2023-08-06T09:27:35;1.07;;;0.97;;
2320;SDS011;15376;48.540;9.268;2023-08-06T09:30:02;0.90;;;0.80;;
2320;SDS011;15376;48.540;9.268;2023-08-06T09:32:36;1.10;;;1.00;;
2320;SDS011;15376;48.540;9.268;2023-08-06T09:35:13;2.13;;;1.50;;
2320;SDS011;15376;48.540;9.268;2023-08-06T09:37:41;0.90;;;0.80;;
2320;SDS011;15376;48.540;9.268;2023-08-06T09:40:23;1.00;;;0.80;;
2320;SDS011;15376;48.540;9.268;2023-08-06T09:42:51;1.53;;;1.43;;
2320;SDS011;15376;48.540;9.268;2023-08-06T09:45:16;0.87;;;0.67;;
2320;SDS011;15376;48.540;9.268;2023-08-06T09:47:41;1.27;;;0.80;;
2320;SDS011;15376;48.540;9.268;2023-08-06T09:50:14;1.00;;;0.77;;
2320;SDS011;15376;48.540;9.268;2023-08-06T09:52:44;24.10;;;17.90;;
2320;SDS011;15376;48.540;9.268;2023-08-06T09:55:13;2.63;;;2.43;;
2320;SDS011;15376;48.540;9.268;2023-08-06T09:57:42;1.63;;;1.27;;
2320;SDS011;15376;48.540;9.268;2023-08-06T10:00:11;3.60;;;1.13;;
2320;SDS011;15376;48.540;9.268;2023-08-06T10:02:38;0.90;;;0.80;;
2320;SDS011;15376;48.540;9.268;2023-08-06T10:05:04;1.20;;;0.90;;
2320;SDS011;15376;48.540;9.268;2023-08-06T10:07:31;1.30;;;0.90;;
2320;SDS011;15376;48.540;9.268;2023-08-06T10:09:56;4.03;;;0.70;;
2320;SDS011;15376;48.540;9.268;2023-08-06T10:12:23;1.00;;;0.80;;
2320;SDS011;15376;48.540;9.268;2023-08-06T10:14:53;1.10;;;0.90;;
2320;SDS011;15376;48.540;9.268;2023-08-06T10:17:21;0.90;;;0.80;;
2320;SDS011;15376;48.540;9.268;2023-08-06T10:19:48;0.80;;;0.70;;
2320;SDS011;15376;48.540;9.268;2023-08-06T10:22:15;1.00;;;0.90;;
2320;SDS011;15376;48.540;9.268;2023-08-06T10:24:52;1.00;;;0.80;;
2320;SDS011;15376;48.540;9.268;2023-08-06T10:32:58;1.20;;;0.90;;
2320;SDS011;15376;48.540;9.268;2023-08-06T10:35:28;0.90;;;0.80;;
2320;SDS011;15376;48.540;9.268;2023-08-06T10:37:57;0.90;;;0.80;;
2320;SDS011;15376;48.540;9.268;2023-08-06T10:40:24;1.10;;;1.00;;
2320;SDS011;15376;48.540;9.268;2023-08-06T10:42:51;0.97;;;0.80;;
2320;SDS011;15376;48.540;9.268;2023-08-06T10:47:45;0.80;;;0.70;;
2320;SDS011;15376;48.540;9.268;2023-08-06T10:50:12;0.80;;;0.70;;
2320;SDS011;15376;48.540;9.268;2023-08-06T10:52:39;1.20;;;0.80;;
2320;SDS011;15376;48.540;9.268;2023-08-06T10:55:05;0.97;;;0.87;;
2320;SDS011;15376;48.540;9.268;2023-08-06T10:57:31;0.90;;;0.80;;
2320;SDS011;15376;48.540;9.268;2023-08-06T10:59:56;0.80;;;0.70;;
2320;SDS011;15376;48.540;9.268;2023-08-06T11:02:22;1.30;;;0.90;;
2320;SDS011;15376;48.540;9.268;2023-08-06T11:04:48;1.33;;;1.10;;
2320;SDS011;15376;48.540;9.268;2023-08-06T11:07:13;0.90;;;0.80;;
2320;SDS011;15376;48.540;9.268;2023-08-06T11:09:39;0.80;;;0.70;;
2320;SDS011;15376;48.540;9.268;2023-08-06T11:12:10;1.00;;;0.90;;
2320;SDS011;15376;48.540;9.268;2023-08-06T11:14:36;1.00;;;0.80;;
2320;SDS011;15376;48.540;9.268;2023-08-06T11:17:03;1.40;;;0.80;;
2320;SDS011;15376;48.540;9.268;2023-08-06T11:19:29;1.43;;;0.80;;
2320;SDS011;15376;48.540;9.268;2023-08-06T11:21:55;0.90;;;0.80;;
2320;SDS011;15376;48.540;9.268;2023-08-06T11:24:21;2.20;;;0.83;;
2320;SDS011;15376;48.540;9.268;2023-08-06T11:26:48;2.70;;;0.80;;
2320;SDS011;15376;48.540;9.268;2023-08-06T11:29:15;1.77;;;0.80;;
2320;SDS011;15376;48.540;9.268;2023-08-06T11:31:41;1.47;;;0.90;;
2320;SDS011;15376;48.540;9.268;2023-08-06T11:34:06;1.33;;;0.87;;
2320;SDS011;15376;48.540;9.268;2023-08-06T11:36:32;1.10;;;1.00;;
2320;SDS011;15376;48.540;9.268;2023-08-06T11:38:59;0.90;;;0.77;;
2320;SDS011;15376;48.540;9.268;2023-08-06T11:41:25;1.23;;;0.80;;
2320;SDS011;15376;48.540;9.268;2023-08-06T11:43:53;0.80;;;0.70;;
2320;SDS011;15376;48.540;9.268;2023-08-06T11:46:18;2.40;;;0.90;;
2320;SDS011;15376;48.540;9.268;2023-08-06T11:48:50;0.80;;;0.70;;
2320;SDS011;15376;48.540;9.268;2023-08-06T11:51:22;0.90;;;0.77;;
2320;SDS011;15376;48.540;9.268;2023-08-06T11:53:49;1.83;;;0.90;;
2320;SDS011;15376;48.540;9.268;2023-08-06T11:56:15;1.00;;;0.90;;
2320;SDS011;15376;48.540;9.268;2023-08-06T11:58:41;1.23;;;0.80;;
2320;SDS011;15376;48.540;9.268;2023-08-06T12:01:07;1.00;;;0.90;;
2320;SDS011;15376;48.540;9.268;2023-08-06T12:03:32;1.13;;;0.80;;
2320;SDS011;15376;48.540;9.268;2023-08-06T12:05:58;0.87;;;0.77;;
2320;SDS011;15376;48.540;9.268;2023-08-06T12:08:26;0.80;;;0.70;;
2320;SDS011;15376;48.540;9.268;2023-08-06T12:10:52;1.10;;;0.90;;
2320;SDS011;15376;48.540;9.268;2023-08-06T12:13:18;0.90;;;0.80;;
2320;SDS011;15376;48.540;9.268;2023-08-06T12:15:44;1.60;;;0.80;;
2320;SDS011;15376;48.540;9.268;2023-08-06T12:18:10;1.67;;;0.90;;
2320;SDS011;15376;48.540;9.268;2023-08-06T12:20:35;1.00;;;0.80;;
2320;SDS011;15376;48.540;9.268;2023-08-06T12:23:01;1.87;;;1.00;;
2320;SDS011;15376;48.540;9.268;2023-08-06T12:25:26;1.30;;;1.20;;
2320;SDS011;15376;48.540;9.268;2023-08-06T12:27:52;1.50;;;1.10;;
2320;SDS011;15376;48.540;9.268;2023-08-06T12:30:17;1.93;;;1.20;;
2320;SDS011;15376;48.540;9.268;2023-08-06T12:32:43;1.63;;;1.40;;
2320;SDS011;15376;48.540;9.268;2023-08-06T12:35:08;1.40;;;1.30;;
2320;SDS011;15376;48.540;9.268;2023-08-06T12:37:34;1.87;;;1.33;;
2320;SDS011;15376;48.540;9.268;2023-08-06T12:40:00;1.47;;;1.37;;
2320;SDS011;15376;48.540;9.268;2023-08-06T12:42:25;1.67;;;1.00;;
2320;SDS011;15376;48.540;9.268;2023-08-06T12:44:51;1.40;;;1.30;;
2320;SDS011;15376;48.540;9.268;2023-08-06T12:47:17;1.30;;;1.20;;
2320;SDS011;15376;48.540;9.268;2023-08-06T12:49:43;1.40;;;1.30;;
2320;SDS011;15376;48.540;9.268;2023-08-06T12:52:08;1.30;;;1.20;;
2320;SDS011;15376;48.540;9.268;2023-08-06T12:54:34;1.70;;;1.53;;
2320;SDS011;15376;48.540;9.268;2023-08-06T12:57:02;1.50;;;1.40;;
2320;SDS011;15376;48.540;9.268;2023-08-06T12:59:28;1.67;;;1.30;;
2320;SDS011;15376;48.540;9.268;2023-08-06T13:01:53;1.50;;;1.40;;
2320;SDS011;15376;48.540;9.268;2023-08-06T13:04:19;2.90;;;1.33;;
2320;SDS011;15376;48.540;9.268;2023-08-06T13:06:44;2.80;;;1.20;;
2320;SDS011;15376;48.540;9.268;2023-08-06T13:09:10;1.63;;;1.13;;
2320;SDS011;15376;48.540;9.268;2023-08-06T13:11:36;1.40;;;1.20;;
2320;SDS011;15376;48.540;9.268;2023-08-06T13:14:06;1.70;;;1.60;;
2320;SDS011;15376;48.540;9.268;2023-08-06T13:16:34;2.17;;;1.20;;
2320;SDS011;15376;48.540;9.268;2023-08-06T13:19:00;1.50;;;1.20;;
2320;SDS011;15376;48.540;9.268;2023-08-06T13:21:37;2.90;;;1.70;;
2320;SDS011;15376;48.540;9.268;2023-08-06T13:24:23;1.20;;;1.10;;
2320;SDS011;15376;48.540;9.268;2023-08-06T13:26:49;1.47;;;1.30;;
2320;SDS011;15376;48.540;9.268;2023-08-06T13:29:14;3.30;;;3.00;;
2320;SDS011;15376;48.540;9.268;2023-08-06T13:31:39;3.57;;;2.90;;
2320;SDS011;15376;48.540;9.268;2023-08-06T13:34:05;3.10;;;1.70;;
2320;SDS011;15376;48.540;9.268;2023-08-06T13:36:30;2.63;;;2.43;;
2320;SDS011;15376;48.540;9.268;2023-08-06T13:38:56;1.20;;;1.00;;
2320;SDS011;15376;48.540;9.268;2023-08-06T13:41:21;1.73;;;1.30;;
2320;SDS011;15376;48.540;9.268;2023-08-06T13:43:48;3.30;;;1.10;;
2320;SDS011;15376;48.540;9.268;2023-08-06T13:46:14;1.00;;;0.90;;
2320;SDS011;15376;48.540;9.268;2023-08-06T13:48:45;1.13;;;1.03;;
2320;SDS011;15376;48.540;9.268;2023-08-06T13:51:11;1.10;;;0.93;;
2320;SDS011;15376;48.540;9.268;2023-08-06T13:53:37;3.23;;;1.07;;
2320;SDS011;15376;48.540;9.268;2023-08-06T13:56:03;1.97;;;1.00;;
2320;SDS011;15376;48.540;9.268;2023-08-06T13:58:29;1.20;;;1.10;;
2320;SDS011;15376;48.540;9.268;2023-08-06T14:00:55;1.30;;;1.20;;
2320;SDS011;15376;48.540;9.268;2023-08-06T14:03:21;1.00;;;0.90;;
2320;SDS011;15376;48.540;9.268;2023-08-06T14:05:47;1.33;;;1.23;;
2320;SDS011;15376;48.540;9.268;2023-08-06T14:08:13;1.30;;;1.00;;
2320;SDS011;15376;48.540;9.268;2023-08-06T14:10:38;1.10;;;1.00;;
2320;SDS011;15376;48.540;9.268;2023-08-06T14:13:04;1.00;;;0.90;;
2320;SDS011;15376;48.540;9.268;2023-08-06T14:15:29;1.50;;;1.10;;
2320;SDS011;15376;48.540;9.268;2023-08-06T14:17:54;1.17;;;1.07;;
2320;SDS011;15376;48.540;9.268;2023-08-06T14:20:20;1.20;;;1.10;;
2320;SDS011;15376;48.540;9.268;2023-08-06T14:22:45;1.30;;;1.13;;
2320;SDS011;15376;48.540;9.268;2023-08-06T14:25:10;1.10;;;0.90;;
2320;SDS011;15376;48.540;9.268;2023-08-06T14:27:36;2.37;;;1.23;;
2320;SDS011;15376;48.540;9.268;2023-08-06T14:30:03;1.37;;;1.27;;
2320;SDS011;15376;48.540;9.268;2023-08-06T14:32:30;1.07;;;0.97;;
2320;SDS011;15376;48.540;9.268;2023-08-06T14:34:56;1.10;;;1.00;;
2320;SDS011;15376;48.540;9.268;2023-08-06T14:37:22;2.03;;;1.00;;
2320;SDS011;15376;48.540;9.268;2023-08-06T14:39:48;1.27;;;1.13;;
2320;SDS011;15376;48.540;9.268;2023-08-06T14:42:13;1.43;;;1.30;;
2320;SDS011;15376;48.540;9.268;2023-08-06T14:44:38;1.80;;;1.47;;
2320;SDS011;15376;48.540;9.268;2023-08-06T14:47:04;3.10;;;2.30;;
2320;SDS011;15376;48.540;9.268;2023-08-06T14:49:29;1.50;;;1.20;;
2320;SDS011;15376;48.540;9.268;2023-08-06T14:51:54;1.63;;;1.30;;
2320;SDS011;15376;48.540;9.268;2023-08-06T14:54:24;1.40;;;1.30;;
2320;SDS011;15376;48.540;9.268;2023-08-06T14:56:49;1.30;;;1.20;;
2320;SDS011;15376;48.540;9.268;2023-08-06T14:59:14;1.30;;;1.07;;
2320;SDS011;15376;48.540;9.268;2023-08-06T15:01:40;1.80;;;1.40;;
2320;SDS011;15376;48.540;9.268;2023-08-06T15:04:05;1.30;;;1.20;;
2320;SDS011;15376;48.540;9.268;2023-08-06T15:06:31;1.20;;;1.10;;